createdAt,value
2023-01-08T00:02:19.576Z,9.00
2023-01-08T00:04:52.092Z,9.02
2023-01-08T00:07:26.180Z,9.08
2023-01-08T00:09:57.842Z,9.07
2023-01-08T00:12:33.737Z,9.04
2023-01-08T00:15:03.015Z,9.15
2023-01-08T00:17:31.901Z,9.20
2023-01-08T00:19:59.837Z,9.22
2023-01-08T00:22:27.651Z,9.12
2023-01-08T00:25:00.252Z,9.20
2023-01-08T00:27:34.843Z,9.20
2023-01-08T00:30:18.137Z,9.30
2023-01-08T00:32:48.612Z,9.21
2023-01-08T00:35:17.697Z,9.33
2023-01-08T00:42:04.804Z,9.39
2023-01-08T00:44:37.006Z,9.36
2023-01-08T00:47:05.303Z,9.47
2023-01-08T00:49:39.805Z,9.38
2023-01-08T00:52:08.998Z,9.27
2023-01-08T00:54:42.775Z,9.32
2023-01-08T00:57:10.647Z,9.27
2023-01-08T00:59:41.310Z,9.26
2023-01-08T01:02:09.786Z,9.18
2023-01-08T01:04:40.310Z,9.16
2023-01-08T01:07:09.918Z,9.06
2023-01-08T01:09:38.681Z,8.96
2023-01-08T01:12:08.905Z,8.92
2023-01-08T01:14:38.438Z,8.89
2023-01-08T01:17:09.578Z,8.85
2023-01-08T01:19:38.113Z,8.86
2023-01-08T01:22:06.721Z,8.87
2023-01-08T01:24:35.628Z,8.86
2023-01-08T01:27:03.654Z,8.84
2023-01-08T01:29:33.908Z,8.85
2023-01-08T01:32:01.905Z,8.83
2023-01-08T01:34:32.509Z,8.82
2023-01-08T01:37:07.801Z,8.75
2023-01-08T01:39:36.189Z,8.72
2023-01-08T01:42:06.553Z,8.72
2023-01-08T01:44:40.145Z,8.76
2023-01-08T01:47:17.142Z,8.70
2023-01-08T01:49:54.322Z,8.72
2023-01-08T01:52:24.610Z,8.66
2023-01-08T01:54:55.808Z,8.57
2023-01-08T01:57:42.622Z,8.57
2023-01-08T02:00:32.643Z,8.49
2023-01-08T02:03:01.839Z,8.43
2023-01-08T02:05:39.664Z,8.34
2023-01-08T02:08:12.650Z,8.30
2023-01-08T02:10:50.170Z,8.30
2023-01-08T02:13:24.047Z,8.17
2023-01-08T02:15:59.512Z,7.95
2023-01-08T02:18:35.854Z,8.01
2023-01-08T02:21:10.446Z,7.93
2023-01-08T02:23:47.528Z,7.96
2023-01-08T02:26:23.368Z,7.88
2023-01-08T02:28:56.278Z,7.88
2023-01-08T02:31:27.895Z,7.91
2023-01-08T02:33:56.044Z,7.85
2023-01-08T02:36:35.659Z,7.79
2023-01-08T02:39:26.441Z,7.79
2023-01-08T02:45:11.141Z,7.69
2023-01-08T02:47:43.173Z,7.66
2023-01-08T02:50:30.407Z,7.69
2023-01-08T02:53:10.642Z,7.79
2023-01-08T02:55:50.938Z,7.75
2023-01-08T02:58:39.893Z,7.63
2023-01-08T03:01:24.425Z,7.60
2023-01-08T03:07:33.887Z,7.52
2023-01-08T03:10:02.440Z,7.55
2023-01-08T03:12:47.572Z,7.55
2023-01-08T03:15:24.057Z,7.52
2023-01-08T03:18:00.624Z,7.49
2023-01-08T03:20:34.299Z,7.42
2023-01-08T03:23:08.165Z,7.53
2023-01-08T03:25:38.636Z,7.62
2023-01-08T03:28:11.670Z,7.60
2023-01-08T03:30:42.797Z,7.50
2023-01-08T03:33:15.901Z,7.42
2023-01-08T03:35:49.584Z,7.36
2023-01-08T03:38:22.714Z,7.46
2023-01-08T03:40:58.342Z,7.50
2023-01-08T03:43:26.838Z,7.44
2023-01-08T03:46:06.970Z,7.49
2023-01-08T03:49:05.734Z,7.64
2023-01-08T03:51:42.322Z,7.68
2023-01-08T03:54:14.163Z,7.74
2023-01-08T03:56:45.661Z,7.77
2023-01-08T03:59:15.077Z,7.81
2023-01-08T04:01:53.143Z,7.85
2023-01-08T04:04:21.473Z,7.82
2023-01-08T04:06:53.727Z,7.81
2023-01-08T04:09:21.861Z,7.81
2023-01-08T04:12:00.721Z,7.74
2023-01-08T04:14:28.936Z,7.75
2023-01-08T04:17:04.046Z,7.82
2023-01-08T04:19:33.407Z,7.82
2023-01-08T04:22:03.949Z,7.80
2023-01-08T04:24:31.933Z,7.89
2023-01-08T04:27:00.953Z,7.93
2023-01-08T04:29:29.144Z,7.91
2023-01-08T04:31:58.332Z,7.98
2023-01-08T04:34:27.276Z,8.09
2023-01-08T04:36:55.659Z,8.07
2023-01-08T04:39:25.017Z,8.11
2023-01-08T04:41:52.914Z,8.21
2023-01-08T04:44:20.897Z,8.18
2023-01-08T04:46:50.077Z,8.15
2023-01-08T04:49:18.129Z,8.17
2023-01-08T04:51:46.999Z,8.09
2023-01-08T04:54:17.328Z,8.18
2023-01-08T04:56:46.672Z,8.12
2023-01-08T04:59:16.398Z,8.11
2023-01-08T05:01:45.193Z,8.09
2023-01-08T05:04:16.629Z,8.06
2023-01-08T05:06:44.747Z,8.10
2023-01-08T05:09:12.999Z,8.11
2023-01-08T05:11:43.247Z,8.06
2023-01-08T05:14:13.589Z,8.12
2023-01-08T05:16:41.692Z,8.11
2023-01-08T05:19:09.692Z,8.12
2023-01-08T05:21:39.979Z,8.08
2023-01-08T05:24:09.307Z,8.10
2023-01-08T05:26:37.319Z,8.04
2023-01-08T05:29:05.420Z,8.02
2023-01-08T05:31:39.037Z,7.95
2023-01-08T05:34:06.994Z,7.91
2023-01-08T05:36:35.120Z,7.96
2023-01-08T05:39:03.425Z,7.95
2023-01-08T05:41:31.457Z,7.95
2023-01-08T05:43:59.640Z,7.96
2023-01-08T05:46:27.837Z,7.97
2023-01-08T05:48:58.144Z,7.95
2023-01-08T05:51:26.152Z,7.95
2023-01-08T05:53:54.437Z,7.90
2023-01-08T05:56:22.668Z,7.87
2023-01-08T05:58:50.581Z,7.88
2023-01-08T06:01:22.838Z,7.85
2023-01-08T06:03:51.185Z,7.90
2023-01-08T06:06:22.257Z,7.98
2023-01-08T06:08:50.250Z,7.98
2023-01-08T06:11:18.266Z,8.02
2023-01-08T06:13:46.140Z,8.00
2023-01-08T06:16:18.659Z,8.03
2023-01-08T06:18:49.019Z,8.03
2023-01-08T06:21:17.143Z,7.97
2023-01-08T06:23:48.411Z,7.93
2023-01-08T06:26:16.376Z,7.94
2023-01-08T06:28:44.402Z,7.86
2023-01-08T06:31:12.476Z,7.92
2023-01-08T06:33:40.740Z,7.91
2023-01-08T06:36:10.626Z,7.82
2023-01-08T06:38:40.146Z,7.65
2023-01-08T06:41:11.942Z,7.64
2023-01-08T06:43:41.373Z,7.66
2023-01-08T06:46:10.719Z,7.53
2023-01-08T06:48:39.592Z,7.56
2023-01-08T06:51:08.382Z,7.60
2023-01-08T06:53:39.687Z,7.66
2023-01-08T06:56:14.996Z,7.66
2023-01-08T06:59:14.669Z,7.68
2023-01-08T07:01:52.281Z,7.70
2023-01-08T07:04:28.837Z,7.64
2023-01-08T07:06:59.065Z,7.61
2023-01-08T07:09:31.301Z,7.56
2023-01-08T07:12:01.748Z,7.54
2023-01-08T07:14:38.685Z,7.54
2023-01-08T07:17:09.645Z,7.53
2023-01-08T07:19:39.025Z,7.46
2023-01-08T07:22:07.254Z,7.36
2023-01-08T07:24:39.377Z,7.23
2023-01-08T07:27:10.761Z,7.10
2023-01-08T07:29:39.822Z,7.13
2023-01-08T07:32:08.889Z,7.10
2023-01-08T07:34:36.827Z,7.03
2023-01-08T07:37:04.766Z,7.05
2023-01-08T07:39:33.115Z,6.92
2023-01-08T07:42:01.062Z,6.98
2023-01-08T07:44:30.539Z,7.04
2023-01-08T07:47:00.023Z,7.08
2023-01-08T07:49:28.059Z,7.20
2023-01-08T07:51:56.163Z,7.16
2023-01-08T07:54:30.692Z,7.13
2023-01-08T07:57:02.530Z,7.08
2023-01-08T07:59:32.227Z,6.99
2023-01-08T08:02:00.464Z,7.10
2023-01-08T08:04:28.656Z,7.10
2023-01-08T08:06:57.067Z,7.07
2023-01-08T08:09:27.098Z,7.07
2023-01-08T08:11:55.249Z,7.05
2023-01-08T08:14:26.607Z,6.93
2023-01-08T08:16:55.905Z,6.95
2023-01-08T08:19:23.974Z,6.93
2023-01-08T08:21:51.792Z,6.87
2023-01-08T08:24:21.086Z,6.84
2023-01-08T08:26:54.316Z,6.82
2023-01-08T08:29:23.413Z,6.97
2023-01-08T08:31:55.368Z,6.93
2023-01-08T08:34:24.813Z,6.96
2023-01-08T08:36:55.308Z,6.98
2023-01-08T08:39:23.453Z,7.00
2023-01-08T08:41:54.044Z,7.04
2023-01-08T08:44:23.349Z,7.01
2023-01-08T08:46:51.318Z,6.96
2023-01-08T08:49:20.697Z,6.98
2023-01-08T08:51:48.994Z,7.04
2023-01-08T08:54:16.876Z,7.06
2023-01-08T08:56:46.071Z,7.17
2023-01-08T08:59:14.305Z,7.10
2023-01-08T09:01:46.421Z,7.05
2023-01-08T09:04:14.609Z,7.24
2023-01-08T09:06:46.180Z,7.18
2023-01-08T09:09:15.605Z,7.23
2023-01-08T09:11:43.942Z,7.22
2023-01-08T09:14:11.883Z,7.27
2023-01-08T09:16:39.996Z,7.35
2023-01-08T09:19:08.686Z,7.50
2023-01-08T09:21:37.908Z,7.64
2023-01-08T09:24:08.493Z,7.85
2023-01-08T09:26:36.766Z,8.29
2023-01-08T09:29:07.601Z,8.54
2023-01-08T09:31:38.613Z,8.88
2023-01-08T09:34:06.817Z,8.99
2023-01-08T09:36:34.779Z,9.20
2023-01-08T09:39:03.113Z,9.48
2023-01-08T09:41:37.489Z,9.75
2023-01-08T09:44:07.830Z,9.97
2023-01-08T09:46:38.160Z,9.93
2023-01-08T09:49:11.523Z,9.73
2023-01-08T09:51:44.829Z,9.51
2023-01-08T09:54:17.757Z,9.41
2023-01-08T09:56:47.574Z,9.03
2023-01-08T09:59:19.979Z,8.66
2023-01-08T10:01:49.396Z,8.42
2023-01-08T10:04:19.877Z,8.18
2023-01-08T10:06:52.136Z,8.15
2023-01-08T10:09:25.427Z,8.12
2023-01-08T10:12:00.239Z,8.14
2023-01-08T10:14:31.938Z,8.10
2023-01-08T10:17:04.957Z,8.07
2023-01-08T10:19:33.770Z,8.20
2023-01-08T10:22:02.936Z,8.25
2023-01-08T10:24:37.566Z,8.41
2023-01-08T10:27:15.303Z,8.81
2023-01-08T10:29:43.554Z,9.08
2023-01-08T10:32:16.037Z,9.26
2023-01-08T10:34:50.961Z,9.86
2023-01-08T10:37:27.212Z,10.62
2023-01-08T10:40:07.940Z,10.49
2023-01-08T10:42:41.981Z,10.05
2023-01-08T10:45:20.252Z,9.70
2023-01-08T10:47:51.650Z,9.43
2023-01-08T10:50:27.062Z,9.07
2023-01-08T10:53:01.040Z,9.05
2023-01-08T10:55:32.596Z,8.92
2023-01-08T10:58:04.372Z,8.85
2023-01-08T11:00:35.167Z,8.87
2023-01-08T11:03:05.791Z,9.05
2023-01-08T11:05:38.085Z,9.15
2023-01-08T11:08:09.732Z,9.01
2023-01-08T11:10:41.390Z,9.20
2023-01-08T11:13:19.329Z,9.32
2023-01-08T11:16:11.869Z,9.48
2023-01-08T11:18:47.932Z,9.71
2023-01-08T11:21:22.117Z,9.91
2023-01-08T11:24:15.397Z,9.78
2023-01-08T11:27:12.059Z,10.04
2023-01-08T11:29:48.912Z,9.89
2023-01-08T11:33:12.446Z,9.87
2023-01-08T11:36:30.999Z,10.04
2023-01-08T11:38:59.555Z,9.99
2023-01-08T11:41:55.451Z,9.69
2023-01-08T11:44:37.867Z,9.50
2023-01-08T11:47:16.444Z,9.41
2023-01-08T11:50:06.739Z,9.56
2023-01-08T11:52:47.164Z,9.67
2023-01-08T11:55:49.060Z,9.74
2023-01-08T11:58:39.978Z,9.70
2023-01-08T12:01:31.521Z,9.63
2023-01-08T12:08:24.204Z,10.32
2023-01-08T12:11:20.199Z,9.81
2023-01-08T12:14:29.418Z,9.53
2023-01-08T12:17:47.557Z,9.84
2023-01-08T12:20:30.622Z,9.53
2023-01-08T12:23:47.280Z,10.41
2023-01-08T12:26:47.747Z,11.20
2023-01-08T12:32:36.708Z,11.57
2023-01-08T12:35:18.377Z,11.63
2023-01-08T12:37:56.063Z,11.62
2023-01-08T12:40:29.472Z,12.10
2023-01-08T12:43:06.779Z,12.21
2023-01-08T12:45:43.793Z,11.16
2023-01-08T12:48:19.035Z,10.57
2023-01-08T12:51:16.884Z,10.34
2023-01-08T12:57:22.677Z,10.12
2023-01-08T13:00:17.778Z,10.95
2023-01-08T13:02:57.305Z,10.92
2023-01-08T13:05:39.610Z,11.52
2023-01-08T13:08:34.883Z,11.87
2023-01-08T13:11:14.839Z,11.78
2023-01-08T13:13:45.821Z,12.07
2023-01-08T13:19:48.307Z,11.50
2023-01-08T13:22:28.214Z,11.80
2023-01-08T13:25:28.399Z,11.46
2023-01-08T13:27:57.595Z,11.46
2023-01-08T13:30:57.054Z,11.15
2023-01-08T13:33:51.084Z,10.90
2023-01-08T13:36:25.182Z,11.10
2023-01-08T13:39:08.687Z,10.88
2023-01-08T13:41:41.258Z,10.98
2023-01-08T13:44:25.853Z,11.12
2023-01-08T13:54:32.418Z,10.22
2023-01-08T13:57:07.551Z,9.90
2023-01-08T14:00:06.942Z,10.35
2023-01-08T14:02:52.024Z,10.56
2023-01-08T14:05:26.738Z,11.17
2023-01-08T14:07:56.934Z,10.85
2023-01-08T14:10:27.487Z,10.33
2023-01-08T14:12:57.930Z,9.98
2023-01-08T14:15:28.526Z,9.54
2023-01-08T14:17:58.128Z,9.39
2023-01-08T14:20:32.733Z,9.35
2023-01-08T14:23:02.675Z,9.27
2023-01-08T14:25:33.804Z,9.31
2023-01-08T14:28:05.690Z,9.18
2023-01-08T14:30:36.663Z,9.01
2023-01-08T14:33:05.266Z,8.94
2023-01-08T14:35:38.801Z,8.77
2023-01-08T14:38:06.879Z,8.77
2023-01-08T14:40:46.886Z,8.66
2023-01-08T14:43:17.777Z,8.72
2023-01-08T14:45:49.293Z,8.70
2023-01-08T14:48:24.984Z,8.66
2023-01-08T14:51:06.415Z,8.53
2023-01-08T14:53:37.329Z,8.44
2023-01-08T14:56:08.426Z,8.36
2023-01-08T14:58:39.421Z,8.37
2023-01-08T15:01:17.483Z,8.32
2023-01-08T15:03:47.466Z,8.26
2023-01-08T15:06:30.689Z,8.03
2023-01-08T15:09:02.091Z,8.07
2023-01-08T15:11:33.239Z,8.20
2023-01-08T15:14:01.296Z,8.03
2023-01-08T15:16:32.098Z,7.99
2023-01-08T15:19:06.660Z,7.97
2023-01-08T15:21:35.711Z,7.90
2023-01-08T15:24:05.170Z,7.74
2023-01-08T15:26:35.213Z,7.75
2023-01-08T15:29:09.274Z,7.72
2023-01-08T15:31:51.188Z,7.66
2023-01-08T15:34:22.583Z,7.37
2023-01-08T15:36:52.372Z,7.40
2023-01-08T15:39:32.457Z,7.23
2023-01-08T15:42:38.622Z,7.20
2023-01-08T15:45:17.405Z,7.11
2023-01-08T15:48:20.697Z,7.12
2023-01-08T15:50:54.789Z,7.11
2023-01-08T15:53:25.221Z,6.71
2023-01-08T15:56:22.386Z,6.84
2023-01-08T15:59:15.715Z,6.63
2023-01-08T16:02:08.385Z,6.62
2023-01-08T16:04:38.799Z,6.46
2023-01-08T16:07:08.623Z,6.72
2023-01-08T16:09:38.127Z,6.68
2023-01-08T16:12:06.753Z,6.54
2023-01-08T16:14:38.133Z,6.53
2023-01-08T16:17:07.506Z,6.50
2023-01-08T16:19:35.629Z,6.61
2023-01-08T16:22:04.819Z,6.63
2023-01-08T16:24:34.045Z,6.53
2023-01-08T16:27:03.664Z,6.52
2023-01-08T16:29:31.843Z,6.36
2023-01-08T16:32:01.228Z,6.45
2023-01-08T16:34:29.226Z,6.53
2023-01-08T16:36:57.250Z,6.52
2023-01-08T16:39:25.255Z,6.51
2023-01-08T16:41:53.109Z,6.47
2023-01-08T16:47:11.786Z,6.30
2023-01-08T16:49:41.708Z,6.34
2023-01-08T16:52:10.596Z,6.23
2023-01-08T16:54:40.719Z,6.21
2023-01-08T16:57:09.337Z,6.15
2023-01-08T16:59:38.264Z,5.97
2023-01-08T17:02:06.659Z,5.96
2023-01-08T17:04:36.016Z,6.00
2023-01-08T17:07:04.278Z,5.98
2023-01-08T17:09:33.932Z,5.91
2023-01-08T17:12:04.387Z,5.95
2023-01-08T17:14:32.569Z,5.96
2023-01-08T17:17:00.554Z,5.87
2023-01-08T17:19:29.276Z,5.98
2023-01-08T17:21:59.833Z,5.90
2023-01-08T17:24:30.141Z,5.78
2023-01-08T17:26:58.784Z,5.64
2023-01-08T17:29:26.920Z,5.53
2023-01-08T17:31:54.932Z,5.35
2023-01-08T17:34:25.373Z,5.65
2023-01-08T17:36:53.224Z,5.61
2023-01-08T17:39:22.680Z,5.73
2023-01-08T17:42:07.994Z,5.63
2023-01-08T17:44:35.956Z,5.60
2023-01-08T17:47:04.191Z,5.76
2023-01-08T17:49:33.597Z,5.58
2023-01-08T17:52:07.179Z,5.42
2023-01-08T17:54:37.109Z,5.38
2023-01-08T17:57:08.769Z,5.36
2023-01-08T17:59:37.354Z,5.39
2023-01-08T18:02:06.685Z,5.48
2023-01-08T18:04:35.126Z,5.46
2023-01-08T18:07:03.162Z,5.37
2023-01-08T18:09:31.132Z,5.47
2023-01-08T18:12:00.510Z,5.48
2023-01-08T18:14:29.582Z,5.43
2023-01-08T18:16:57.622Z,5.59
2023-01-08T18:19:26.240Z,5.56
2023-01-08T18:21:54.820Z,5.49
2023-01-08T18:24:23.003Z,5.50
2023-01-08T18:26:52.600Z,5.53
2023-01-08T18:29:22.554Z,5.59
2023-01-08T18:31:50.610Z,5.61
2023-01-08T18:34:18.615Z,5.54
2023-01-08T18:36:46.509Z,5.41
2023-01-08T18:39:14.586Z,5.26
2023-01-08T18:42:01.309Z,5.28
2023-01-08T18:44:30.641Z,5.19
2023-01-08T18:46:58.601Z,5.40
2023-01-08T18:49:32.439Z,5.35
2023-01-08T18:52:00.344Z,5.30
2023-01-08T18:54:29.865Z,5.34
2023-01-08T18:56:57.873Z,5.57
2023-01-08T18:59:28.179Z,5.43
2023-01-08T19:02:00.033Z,5.38
2023-01-08T19:04:29.178Z,5.39
2023-01-08T19:06:58.346Z,5.31
2023-01-08T19:09:26.452Z,5.28
2023-01-08T19:11:54.642Z,5.33
2023-01-08T19:14:22.598Z,5.31
2023-01-08T19:16:51.932Z,5.17
2023-01-08T19:19:21.451Z,5.19
2023-01-08T19:21:49.633Z,5.27
2023-01-08T19:24:17.489Z,5.32
2023-01-08T19:26:52.623Z,5.27
2023-01-08T19:29:20.674Z,5.30
2023-01-08T19:31:53.040Z,5.29
2023-01-08T19:34:22.677Z,5.21
2023-01-08T19:36:50.564Z,5.14
2023-01-08T19:39:19.408Z,5.28
2023-01-08T19:42:05.135Z,5.31
2023-01-08T19:44:33.150Z,5.26
2023-01-08T19:47:05.539Z,5.33
2023-01-08T19:49:35.100Z,5.38
2023-01-08T19:52:03.261Z,5.29
2023-01-08T19:54:31.418Z,5.11
2023-01-08T19:56:59.306Z,5.31
2023-01-08T19:59:27.169Z,5.27
2023-01-08T20:01:55.153Z,5.26
2023-01-08T20:04:23.307Z,5.34
2023-01-08T20:06:57.426Z,5.37
2023-01-08T20:09:31.532Z,5.47
2023-01-08T20:11:59.400Z,5.39
2023-01-08T20:14:27.309Z,5.32
2023-01-08T20:17:02.325Z,5.33
2023-01-08T20:19:30.749Z,5.59
2023-01-08T20:22:31.190Z,5.51
2023-01-08T20:25:01.488Z,5.61
2023-01-08T20:27:31.804Z,5.42
2023-01-08T20:30:00.859Z,5.29
2023-01-08T20:32:29.026Z,5.52
2023-01-08T20:34:57.105Z,5.60
2023-01-08T20:37:25.252Z,5.54
2023-01-08T20:39:54.944Z,5.48
2023-01-08T20:42:33.512Z,5.61
2023-01-08T20:45:01.841Z,5.63
2023-01-08T20:47:29.811Z,5.69
2023-01-08T20:50:01.629Z,5.78
2023-01-08T20:52:35.263Z,5.81
2023-01-08T20:55:07.961Z,5.82
2023-01-08T20:57:47.475Z,5.70
2023-01-08T21:00:16.145Z,5.72
2023-01-08T21:02:49.254Z,5.70
2023-01-08T21:05:17.428Z,5.50
2023-01-08T21:07:46.549Z,5.53
2023-01-08T21:10:16.096Z,5.58
2023-01-08T21:12:45.164Z,5.51
2023-01-08T21:15:13.207Z,5.60
2023-01-08T21:17:46.209Z,5.63
2023-01-08T21:21:29.020Z,5.48
2023-01-08T21:27:40.817Z,5.96
2023-01-08T21:30:10.247Z,6.09
2023-01-08T21:32:39.750Z,5.93
2023-01-08T21:35:08.935Z,6.06
2023-01-08T21:37:37.221Z,6.00
2023-01-08T21:40:07.045Z,6.15
2023-01-08T21:42:52.466Z,6.35
2023-01-08T21:45:28.955Z,6.32
2023-01-08T21:47:58.641Z,6.32
2023-01-08T21:50:28.938Z,6.28
2023-01-08T21:53:14.706Z,6.22
2023-01-08T21:55:42.902Z,6.26
2023-01-08T21:58:11.235Z,6.37
2023-01-08T22:00:40.675Z,6.52
2023-01-08T22:03:11.504Z,6.68
2023-01-08T22:09:21.762Z,6.73
2023-01-08T22:11:49.743Z,6.70
2023-01-08T22:14:17.969Z,6.46
2023-01-08T22:16:47.417Z,6.59
2023-01-08T22:19:15.347Z,6.63
2023-01-08T22:21:43.426Z,6.75
2023-01-08T22:24:11.468Z,6.72
2023-01-08T22:26:39.407Z,6.67
2023-01-08T22:29:08.071Z,6.79
2023-01-08T22:31:37.144Z,6.78
2023-01-08T22:34:06.454Z,6.64
2023-01-08T22:36:34.348Z,6.77
2023-01-08T22:39:03.448Z,6.72
2023-01-08T22:41:32.335Z,6.75
2023-01-08T22:44:01.476Z,6.67
2023-01-08T22:46:31.685Z,6.60
2023-01-08T22:49:02.217Z,6.67
2023-01-08T22:51:31.784Z,6.66
2023-01-08T22:54:01.012Z,6.67
2023-01-08T22:56:29.465Z,6.66
2023-01-08T22:58:59.065Z,6.52
2023-01-08T23:01:28.410Z,6.52
2023-01-08T23:03:58.422Z,6.61
2023-01-08T23:06:30.977Z,6.65
2023-01-08T23:09:00.893Z,6.57
2023-01-08T23:11:29.452Z,6.56
2023-01-08T23:13:57.558Z,6.62
2023-01-08T23:16:26.120Z,6.56
2023-01-08T23:18:54.659Z,6.64
2023-01-08T23:21:24.690Z,6.60
2023-01-08T23:23:52.974Z,6.66
2023-01-08T23:26:25.511Z,6.72
2023-01-08T23:28:55.140Z,6.77
2023-01-08T23:31:25.109Z,6.77
2023-01-08T23:33:55.012Z,6.82
2023-01-08T23:36:23.665Z,6.86
2023-01-08T23:38:54.746Z,6.93
2023-01-08T23:41:32.018Z,6.96
2023-01-08T23:44:02.607Z,6.97
2023-01-08T23:46:30.687Z,7.00
2023-01-08T23:48:58.874Z,6.99
2023-01-08T23:51:29.065Z,6.99
2023-01-08T23:53:57.081Z,7.08
2023-01-08T23:56:27.033Z,7.11
2023-01-08T23:58:55.224Z,7.13
